sensor_id;sensor_type;location;lat;lon;timestamp;P1;durP1;ratioP1;P2;durP2;ratioP2
58992;SDS011;44782;0.000;0.000;2022-08-01T00:01:02;1.88;;;1.70;;
58992;SDS011;44782;0.000;0.000;2022-08-01T00:03:18;1.52;;;1.40;;
58992;SDS011;44782;0.000;0.000;2022-08-01T00:05:33;1.55;;;1.45;;
58992;SDS011;44782;0.000;0.000;2022-08-01T00:07:49;1.38;;;1.30;;
58992;SDS011;44782;0.000;0.000;2022-08-01T00:10:07;1.48;;;1.38;;
58992;SDS011;44782;0.000;0.000;2022-08-01T00:12:24;1.88;;;1.77;;
58992;SDS011;44782;0.000;0.000;2022-08-01T00:14:40;1.48;;;1.38;;
58992;SDS011;44782;0.000;0.000;2022-08-01T00:16:55;1.60;;;1.50;;
58992;SDS011;44782;0.000;0.000;2022-08-01T00:19:11;1.50;;;1.40;;
58992;SDS011;44782;0.000;0.000;2022-08-01T00:21:27;1.75;;;1.38;;
58992;SDS011;44782;0.000;0.000;2022-08-01T00:23:42;1.98;;;1.42;;
58992;SDS011;44782;0.000;0.000;2022-08-01T00:26:00;1.65;;;1.55;;
58992;SDS011;44782;0.000;0.000;2022-08-01T00:28:16;1.70;;;1.60;;
58992;SDS011;44782;0.000;0.000;2022-08-01T00:30:31;1.38;;;1.27;;
58992;SDS011;44782;0.000;0.000;2022-08-01T00:32:47;1.60;;;1.50;;
58992;SDS011;44782;0.000;0.000;2022-08-01T00:35:02;1.60;;;1.50;;
58992;SDS011;44782;0.000;0.000;2022-08-01T00:37:18;1.60;;;1.50;;
58992;SDS011;44782;0.000;0.000;2022-08-01T00:39:34;1.67;;;1.58;;
58992;SDS011;44782;0.000;0.000;2022-08-01T00:41:49;1.55;;;1.45;;
58992;SDS011;44782;0.000;0.000;2022-08-01T00:44:05;1.58;;;1.48;;
58992;SDS011;44782;0.000;0.000;2022-08-01T00:46:21;1.60;;;1.50;;
58992;SDS011;44782;0.000;0.000;2022-08-01T00:48:36;1.60;;;1.50;;
58992;SDS011;44782;0.000;0.000;2022-08-01T00:50:52;1.70;;;1.60;;
58992;SDS011;44782;0.000;0.000;2022-08-01T00:53:08;1.38;;;1.27;;
58992;SDS011;44782;0.000;0.000;2022-08-01T00:55:23;1.50;;;1.40;;
58992;SDS011;44782;0.000;0.000;2022-08-01T00:57:39;1.50;;;1.40;;
58992;SDS011;44782;0.000;0.000;2022-08-01T00:59:55;1.88;;;1.40;;
58992;SDS011;44782;0.000;0.000;2022-08-01T01:02:11;1.40;;;1.30;;
58992;SDS011;44782;0.000;0.000;2022-08-01T01:04:27;1.70;;;1.60;;
58992;SDS011;44782;0.000;0.000;2022-08-01T01:17:07;1.30;;;1.25;;
58992;SDS011;44782;0.000;0.000;2022-08-01T01:19:24;1.50;;;1.40;;
58992;SDS011;44782;0.000;0.000;2022-08-01T01:21:47;1.48;;;1.38;;
58992;SDS011;44782;0.000;0.000;2022-08-01T01:26:54;1.60;;;1.50;;
58992;SDS011;44782;0.000;0.000;2022-08-01T01:29:17;1.27;;;1.20;;
58992;SDS011;44782;0.000;0.000;2022-08-01T01:31:43;1.77;;;1.42;;
58992;SDS011;44782;0.000;0.000;2022-08-01T01:34:04;1.30;;;1.30;;
58992;SDS011;44782;0.000;0.000;2022-08-01T01:36:21;1.50;;;1.40;;
58992;SDS011;44782;0.000;0.000;2022-08-01T01:38:42;1.30;;;1.20;;
58992;SDS011;44782;0.000;0.000;2022-08-01T01:40:59;1.40;;;1.30;;
58992;SDS011;44782;0.000;0.000;2022-08-01T01:43:17;1.40;;;1.40;;
58992;SDS011;44782;0.000;0.000;2022-08-01T01:45:34;1.50;;;1.40;;
58992;SDS011;44782;0.000;0.000;2022-08-01T01:47:51;1.50;;;1.30;;
58992;SDS011;44782;0.000;0.000;2022-08-01T01:50:08;1.40;;;1.30;;
58992;SDS011;44782;0.000;0.000;2022-08-01T01:52:27;1.25;;;1.15;;
58992;SDS011;44782;0.000;0.000;2022-08-01T01:54:46;1.33;;;1.23;;
58992;SDS011;44782;0.000;0.000;2022-08-01T01:57:04;1.48;;;1.38;;
58992;SDS011;44782;0.000;0.000;2022-08-01T01:59:24;1.50;;;1.40;;
58992;SDS011;44782;0.000;0.000;2022-08-01T02:01:41;1.20;;;1.20;;
58992;SDS011;44782;0.000;0.000;2022-08-01T02:03:58;1.15;;;1.15;;
58992;SDS011;44782;0.000;0.000;2022-08-01T02:06:17;1.50;;;1.40;;
58992;SDS011;44782;0.000;0.000;2022-08-01T02:08:33;1.38;;;1.30;;
58992;SDS011;44782;0.000;0.000;2022-08-01T02:10:51;1.50;;;1.40;;
58992;SDS011;44782;0.000;0.000;2022-08-01T02:13:29;1.27;;;1.27;;
58992;SDS011;44782;0.000;0.000;2022-08-01T02:15:49;1.35;;;1.25;;
58992;SDS011;44782;0.000;0.000;2022-08-01T02:18:06;1.40;;;1.30;;
58992;SDS011;44782;0.000;0.000;2022-08-01T02:20:24;1.45;;;1.35;;
58992;SDS011;44782;0.000;0.000;2022-08-01T02:22:43;1.40;;;1.30;;
58992;SDS011;44782;0.000;0.000;2022-08-01T02:25:15;1.60;;;1.50;;
58992;SDS011;44782;0.000;0.000;2022-08-01T02:27:54;1.30;;;1.20;;
58992;SDS011;44782;0.000;0.000;2022-08-01T02:30:20;1.25;;;1.25;;
58992;SDS011;44782;0.000;0.000;2022-08-01T02:32:49;1.40;;;1.30;;
58992;SDS011;44782;0.000;0.000;2022-08-01T02:35:07;1.20;;;1.20;;
58992;SDS011;44782;0.000;0.000;2022-08-01T02:37:29;1.40;;;1.30;;
58992;SDS011;44782;0.000;0.000;2022-08-01T02:39:48;1.50;;;1.40;;
58992;SDS011;44782;0.000;0.000;2022-08-01T02:42:07;1.50;;;1.40;;
58992;SDS011;44782;0.000;0.000;2022-08-01T02:44:30;1.20;;;1.20;;
58992;SDS011;44782;0.000;0.000;2022-08-01T02:46:50;1.40;;;1.30;;
58992;SDS011;44782;0.000;0.000;2022-08-01T02:49:09;1.58;;;1.48;;
58992;SDS011;44782;0.000;0.000;2022-08-01T02:51:26;1.55;;;1.45;;
58992;SDS011;44782;0.000;0.000;2022-08-01T02:53:44;1.33;;;1.25;;
58992;SDS011;44782;0.000;0.000;2022-08-01T02:56:03;1.00;;;1.00;;
58992;SDS011;44782;0.000;0.000;2022-08-01T02:58:20;1.40;;;1.30;;
58992;SDS011;44782;0.000;0.000;2022-08-01T03:00:39;1.45;;;1.35;;
58992;SDS011;44782;0.000;0.000;2022-08-01T03:02:56;1.30;;;1.20;;
58992;SDS011;44782;0.000;0.000;2022-08-01T03:05:13;1.30;;;1.25;;
58992;SDS011;44782;0.000;0.000;2022-08-01T03:07:32;1.35;;;1.30;;
58992;SDS011;44782;0.000;0.000;2022-08-01T03:09:48;1.30;;;1.20;;
58992;SDS011;44782;0.000;0.000;2022-08-01T03:12:06;1.33;;;1.27;;
58992;SDS011;44782;0.000;0.000;2022-08-01T03:14:29;1.30;;;1.20;;
58992;SDS011;44782;0.000;0.000;2022-08-01T03:16:47;1.50;;;1.35;;
58992;SDS011;44782;0.000;0.000;2022-08-01T03:19:05;1.20;;;1.20;;
58992;SDS011;44782;0.000;0.000;2022-08-01T03:21:23;1.30;;;1.20;;
58992;SDS011;44782;0.000;0.000;2022-08-01T03:23:40;1.30;;;1.20;;
58992;SDS011;44782;0.000;0.000;2022-08-01T03:25:57;1.38;;;1.27;;
58992;SDS011;44782;0.000;0.000;2022-08-01T03:28:15;1.40;;;1.30;;
58992;SDS011;44782;0.000;0.000;2022-08-01T03:30:32;4.65;;;1.30;;
58992;SDS011;44782;0.000;0.000;2022-08-01T03:32:50;1.50;;;1.20;;
58992;SDS011;44782;0.000;0.000;2022-08-01T03:35:06;1.92;;;1.10;;
58992;SDS011;44782;0.000;0.000;2022-08-01T03:37:36;1.20;;;1.20;;
58992;SDS011;44782;0.000;0.000;2022-08-01T03:40:10;2.03;;;1.23;;
58992;SDS011;44782;0.000;0.000;2022-08-01T03:42:52;1.42;;;1.30;;
58992;SDS011;44782;0.000;0.000;2022-08-01T03:45:13;2.65;;;1.27;;
58992;SDS011;44782;0.000;0.000;2022-08-01T03:47:36;1.50;;;1.40;;
58992;SDS011;44782;0.000;0.000;2022-08-01T03:49:53;1.48;;;1.38;;
58992;SDS011;44782;0.000;0.000;2022-08-01T03:52:10;1.92;;;1.40;;
58992;SDS011;44782;0.000;0.000;2022-08-01T03:54:30;1.40;;;1.40;;
58992;SDS011;44782;0.000;0.000;2022-08-01T03:56:48;2.10;;;1.38;;
58992;SDS011;44782;0.000;0.000;2022-08-01T03:59:06;2.08;;;1.40;;
58992;SDS011;44782;0.000;0.000;2022-08-01T04:01:23;1.40;;;1.30;;
58992;SDS011;44782;0.000;0.000;2022-08-01T04:03:39;1.63;;;1.52;;
58992;SDS011;44782;0.000;0.000;2022-08-01T04:05:55;3.22;;;1.30;;
58992;SDS011;44782;0.000;0.000;2022-08-01T04:08:11;1.60;;;1.50;;
58992;SDS011;44782;0.000;0.000;2022-08-01T04:10:27;1.50;;;1.40;;
58992;SDS011;44782;0.000;0.000;2022-08-01T04:12:44;1.50;;;1.40;;
58992;SDS011;44782;0.000;0.000;2022-08-01T04:14:59;1.63;;;1.52;;
58992;SDS011;44782;0.000;0.000;2022-08-01T04:17:15;1.40;;;1.30;;
58992;SDS011;44782;0.000;0.000;2022-08-01T04:19:31;1.52;;;1.42;;
58992;SDS011;44782;0.000;0.000;2022-08-01T04:21:47;1.58;;;1.48;;
58992;SDS011;44782;0.000;0.000;2022-08-01T04:24:10;1.58;;;1.48;;
58992;SDS011;44782;0.000;0.000;2022-08-01T04:26:29;1.55;;;1.45;;
58992;SDS011;44782;0.000;0.000;2022-08-01T04:28:47;1.50;;;1.40;;
58992;SDS011;44782;0.000;0.000;2022-08-01T04:31:06;1.48;;;1.38;;
58992;SDS011;44782;0.000;0.000;2022-08-01T04:33:26;1.60;;;1.50;;
58992;SDS011;44782;0.000;0.000;2022-08-01T04:35:45;1.60;;;1.50;;
58992;SDS011;44782;0.000;0.000;2022-08-01T04:38:02;1.60;;;1.50;;
58992;SDS011;44782;0.000;0.000;2022-08-01T04:40:19;1.50;;;1.40;;
58992;SDS011;44782;0.000;0.000;2022-08-01T04:42:36;1.73;;;1.63;;
58992;SDS011;44782;0.000;0.000;2022-08-01T04:44:52;1.80;;;1.70;;
58992;SDS011;44782;0.000;0.000;2022-08-01T04:47:08;1.90;;;1.80;;
58992;SDS011;44782;0.000;0.000;2022-08-01T04:49:24;1.50;;;1.40;;
58992;SDS011;44782;0.000;0.000;2022-08-01T04:51:50;1.75;;;1.65;;
58992;SDS011;44782;0.000;0.000;2022-08-01T04:54:12;1.60;;;1.50;;
58992;SDS011;44782;0.000;0.000;2022-08-01T04:56:27;1.60;;;1.50;;
58992;SDS011;44782;0.000;0.000;2022-08-01T04:58:43;1.60;;;1.50;;
58992;SDS011;44782;0.000;0.000;2022-08-01T05:00:59;1.70;;;1.60;;
58992;SDS011;44782;0.000;0.000;2022-08-01T05:03:15;1.83;;;1.73;;
58992;SDS011;44782;0.000;0.000;2022-08-01T05:05:31;1.60;;;1.50;;
58992;SDS011;44782;0.000;0.000;2022-08-01T05:07:46;1.70;;;1.60;;
58992;SDS011;44782;0.000;0.000;2022-08-01T05:10:03;1.40;;;1.40;;
58992;SDS011;44782;0.000;0.000;2022-08-01T05:12:19;1.50;;;1.40;;
58992;SDS011;44782;0.000;0.000;2022-08-01T05:14:35;1.40;;;1.30;;
58992;SDS011;44782;0.000;0.000;2022-08-01T05:16:51;1.80;;;1.70;;
58992;SDS011;44782;0.000;0.000;2022-08-01T05:19:07;1.70;;;1.60;;
58992;SDS011;44782;0.000;0.000;2022-08-01T05:21:23;1.60;;;1.50;;
58992;SDS011;44782;0.000;0.000;2022-08-01T05:23:39;1.40;;;1.40;;
58992;SDS011;44782;0.000;0.000;2022-08-01T05:25:54;1.70;;;1.60;;
58992;SDS011;44782;0.000;0.000;2022-08-01T05:28:10;1.60;;;1.50;;
58992;SDS011;44782;0.000;0.000;2022-08-01T05:30:25;1.52;;;1.42;;
58992;SDS011;44782;0.000;0.000;2022-08-01T05:32:41;1.58;;;1.48;;
58992;SDS011;44782;0.000;0.000;2022-08-01T05:34:57;1.60;;;1.50;;
58992;SDS011;44782;0.000;0.000;2022-08-01T05:37:13;1.70;;;1.60;;
58992;SDS011;44782;0.000;0.000;2022-08-01T05:39:28;1.67;;;1.58;;
58992;SDS011;44782;0.000;0.000;2022-08-01T05:41:44;1.60;;;1.50;;
58992;SDS011;44782;0.000;0.000;2022-08-01T05:44:00;1.60;;;1.50;;
58992;SDS011;44782;0.000;0.000;2022-08-01T05:46:15;1.70;;;1.60;;
58992;SDS011;44782;0.000;0.000;2022-08-01T05:48:31;1.50;;;1.40;;
58992;SDS011;44782;0.000;0.000;2022-08-01T05:50:46;1.60;;;1.50;;
58992;SDS011;44782;0.000;0.000;2022-08-01T05:53:02;1.70;;;1.60;;
58992;SDS011;44782;0.000;0.000;2022-08-01T05:55:18;1.67;;;1.58;;
58992;SDS011;44782;0.000;0.000;2022-08-01T05:57:34;2.13;;;1.40;;
58992;SDS011;44782;0.000;0.000;2022-08-01T05:59:49;1.70;;;1.60;;
58992;SDS011;44782;0.000;0.000;2022-08-01T06:02:05;1.40;;;1.30;;
58992;SDS011;44782;0.000;0.000;2022-08-01T06:04:21;1.42;;;1.33;;
58992;SDS011;44782;0.000;0.000;2022-08-01T06:06:37;1.80;;;1.70;;
58992;SDS011;44782;0.000;0.000;2022-08-01T06:08:52;1.70;;;1.60;;
58992;SDS011;44782;0.000;0.000;2022-08-01T06:11:08;1.50;;;1.40;;
58992;SDS011;44782;0.000;0.000;2022-08-01T06:13:24;1.60;;;1.50;;
58992;SDS011;44782;0.000;0.000;2022-08-01T06:15:39;1.65;;;1.55;;
58992;SDS011;44782;0.000;0.000;2022-08-01T06:17:55;1.50;;;1.40;;
58992;SDS011;44782;0.000;0.000;2022-08-01T06:20:11;1.70;;;1.60;;
58992;SDS011;44782;0.000;0.000;2022-08-01T06:22:27;1.60;;;1.50;;
58992;SDS011;44782;0.000;0.000;2022-08-01T06:24:42;1.60;;;1.50;;
58992;SDS011;44782;0.000;0.000;2022-08-01T06:26:58;1.50;;;1.40;;
58992;SDS011;44782;0.000;0.000;2022-08-01T06:29:13;1.67;;;1.58;;
58992;SDS011;44782;0.000;0.000;2022-08-01T06:31:29;1.52;;;1.42;;
58992;SDS011;44782;0.000;0.000;2022-08-01T06:33:46;1.80;;;1.70;;
58992;SDS011;44782;0.000;0.000;2022-08-01T06:36:01;1.77;;;1.67;;
58992;SDS011;44782;0.000;0.000;2022-08-01T06:38:17;1.83;;;1.70;;
58992;SDS011;44782;0.000;0.000;2022-08-01T06:40:33;1.73;;;1.63;;
58992;SDS011;44782;0.000;0.000;2022-08-01T06:42:49;1.88;;;1.70;;
58992;SDS011;44782;0.000;0.000;2022-08-01T06:45:05;1.90;;;1.70;;
58992;SDS011;44782;0.000;0.000;2022-08-01T06:47:21;1.80;;;1.70;;
58992;SDS011;44782;0.000;0.000;2022-08-01T06:49:37;2.05;;;1.60;;
58992;SDS011;44782;0.000;0.000;2022-08-01T06:51:52;1.50;;;1.40;;
58992;SDS011;44782;0.000;0.000;2022-08-01T06:54:08;1.70;;;1.60;;
58992;SDS011;44782;0.000;0.000;2022-08-01T06:56:24;1.73;;;1.63;;
58992;SDS011;44782;0.000;0.000;2022-08-01T06:58:39;1.60;;;1.50;;
58992;SDS011;44782;0.000;0.000;2022-08-01T07:00:56;1.70;;;1.60;;
58992;SDS011;44782;0.000;0.000;2022-08-01T07:03:11;1.90;;;1.80;;
58992;SDS011;44782;0.000;0.000;2022-08-01T07:05:27;1.83;;;1.73;;
58992;SDS011;44782;0.000;0.000;2022-08-01T07:07:45;2.08;;;1.75;;
58992;SDS011;44782;0.000;0.000;2022-08-01T07:10:01;1.92;;;1.83;;
58992;SDS011;44782;0.000;0.000;2022-08-01T07:12:18;1.70;;;1.60;;
58992;SDS011;44782;0.000;0.000;2022-08-01T07:14:33;1.70;;;1.60;;
58992;SDS011;44782;0.000;0.000;2022-08-01T07:16:49;1.65;;;1.55;;
58992;SDS011;44782;0.000;0.000;2022-08-01T07:19:06;1.60;;;1.50;;
58992;SDS011;44782;0.000;0.000;2022-08-01T07:21:21;1.60;;;1.50;;
58992;SDS011;44782;0.000;0.000;2022-08-01T07:23:37;1.50;;;1.40;;
58992;SDS011;44782;0.000;0.000;2022-08-01T07:25:53;1.65;;;1.55;;
58992;SDS011;44782;0.000;0.000;2022-08-01T07:28:08;1.70;;;1.60;;
58992;SDS011;44782;0.000;0.000;2022-08-01T07:30:24;1.80;;;1.70;;
58992;SDS011;44782;0.000;0.000;2022-08-01T07:32:40;1.77;;;1.67;;
58992;SDS011;44782;0.000;0.000;2022-08-01T07:34:56;1.67;;;1.58;;
58992;SDS011;44782;0.000;0.000;2022-08-01T07:37:12;1.60;;;1.50;;
58992;SDS011;44782;0.000;0.000;2022-08-01T07:39:27;1.60;;;1.50;;
58992;SDS011;44782;0.000;0.000;2022-08-01T07:41:43;1.42;;;1.33;;
58992;SDS011;44782;0.000;0.000;2022-08-01T07:43:58;1.90;;;1.80;;
58992;SDS011;44782;0.000;0.000;2022-08-01T07:46:14;1.60;;;1.50;;
58992;SDS011;44782;0.000;0.000;2022-08-01T07:48:31;1.80;;;1.70;;
58992;SDS011;44782;0.000;0.000;2022-08-01T07:50:47;1.60;;;1.50;;
58992;SDS011;44782;0.000;0.000;2022-08-01T07:53:02;1.90;;;1.80;;
58992;SDS011;44782;0.000;0.000;2022-08-01T07:55:18;1.73;;;1.63;;
58992;SDS011;44782;0.000;0.000;2022-08-01T07:57:34;1.48;;;1.42;;
58992;SDS011;44782;0.000;0.000;2022-08-01T07:59:50;1.67;;;1.58;;
58992;SDS011;44782;0.000;0.000;2022-08-01T08:02:06;1.73;;;1.63;;
58992;SDS011;44782;0.000;0.000;2022-08-01T08:04:22;1.63;;;1.52;;
58992;SDS011;44782;0.000;0.000;2022-08-01T08:06:37;1.58;;;1.48;;
58992;SDS011;44782;0.000;0.000;2022-08-01T08:08:53;1.95;;;1.70;;
58992;SDS011;44782;0.000;0.000;2022-08-01T08:11:08;1.77;;;1.60;;
58992;SDS011;44782;0.000;0.000;2022-08-01T08:13:24;1.80;;;1.70;;
58992;SDS011;44782;0.000;0.000;2022-08-01T08:15:40;1.55;;;1.45;;
58992;SDS011;44782;0.000;0.000;2022-08-01T08:17:56;1.60;;;1.50;;
58992;SDS011;44782;0.000;0.000;2022-08-01T08:20:11;1.65;;;1.55;;
58992;SDS011;44782;0.000;0.000;2022-08-01T08:22:27;1.80;;;1.65;;
58992;SDS011;44782;0.000;0.000;2022-08-01T08:24:43;1.60;;;1.50;;
58992;SDS011;44782;0.000;0.000;2022-08-01T08:26:59;1.52;;;1.42;;
58992;SDS011;44782;0.000;0.000;2022-08-01T08:29:15;1.60;;;1.50;;
58992;SDS011;44782;0.000;0.000;2022-08-01T08:31:31;1.77;;;1.50;;
58992;SDS011;44782;0.000;0.000;2022-08-01T08:33:47;1.60;;;1.50;;
58992;SDS011;44782;0.000;0.000;2022-08-01T08:36:03;1.52;;;1.42;;
58992;SDS011;44782;0.000;0.000;2022-08-01T08:38:19;1.48;;;1.38;;
58992;SDS011;44782;0.000;0.000;2022-08-01T08:40:35;1.60;;;1.50;;
58992;SDS011;44782;0.000;0.000;2022-08-01T08:42:51;1.60;;;1.50;;
58992;SDS011;44782;0.000;0.000;2022-08-01T08:45:08;1.80;;;1.70;;
58992;SDS011;44782;0.000;0.000;2022-08-01T08:47:24;1.60;;;1.50;;
58992;SDS011;44782;0.000;0.000;2022-08-01T08:49:43;2.00;;;1.90;;
58992;SDS011;44782;0.000;0.000;2022-08-01T08:51:59;1.70;;;1.60;;
58992;SDS011;44782;0.000;0.000;2022-08-01T08:54:17;1.73;;;1.63;;
58992;SDS011;44782;0.000;0.000;2022-08-01T08:56:36;1.95;;;1.85;;
58992;SDS011;44782;0.000;0.000;2022-08-01T08:58:52;1.85;;;1.75;;
58992;SDS011;44782;0.000;0.000;2022-08-01T09:01:08;1.90;;;1.80;;
58992;SDS011;44782;0.000;0.000;2022-08-01T09:03:25;2.13;;;1.98;;
58992;SDS011;44782;0.000;0.000;2022-08-01T09:05:40;2.20;;;2.00;;
58992;SDS011;44782;0.000;0.000;2022-08-01T09:07:56;2.25;;;1.98;;
58992;SDS011;44782;0.000;0.000;2022-08-01T09:10:12;2.20;;;2.08;;
58992;SDS011;44782;0.000;0.000;2022-08-01T09:12:27;1.90;;;1.80;;
58992;SDS011;44782;0.000;0.000;2022-08-01T09:14:44;1.95;;;1.85;;
58992;SDS011;44782;0.000;0.000;2022-08-01T09:17:05;2.47;;;2.00;;
58992;SDS011;44782;0.000;0.000;2022-08-01T09:19:23;1.80;;;1.70;;
58992;SDS011;44782;0.000;0.000;2022-08-01T09:21:39;1.85;;;1.75;;
58992;SDS011;44782;0.000;0.000;2022-08-01T09:24:13;2.03;;;1.80;;
58992;SDS011;44782;0.000;0.000;2022-08-01T09:26:31;1.80;;;1.70;;
58992;SDS011;44782;0.000;0.000;2022-08-01T09:28:49;2.15;;;2.00;;
58992;SDS011;44782;0.000;0.000;2022-08-01T09:31:15;1.80;;;1.70;;
58992;SDS011;44782;0.000;0.000;2022-08-01T09:33:48;2.10;;;1.90;;
58992;SDS011;44782;0.000;0.000;2022-08-01T09:36:05;2.10;;;2.00;;
58992;SDS011;44782;0.000;0.000;2022-08-01T09:38:21;1.98;;;1.88;;
58992;SDS011;44782;0.000;0.000;2022-08-01T09:43:10;2.50;;;2.30;;
58992;SDS011;44782;0.000;0.000;2022-08-01T09:45:31;2.90;;;2.70;;
58992;SDS011;44782;0.000;0.000;2022-08-01T09:47:47;3.05;;;2.85;;
58992;SDS011;44782;0.000;0.000;2022-08-01T09:50:03;3.25;;;2.95;;
58992;SDS011;44782;0.000;0.000;2022-08-01T09:52:20;3.03;;;2.83;;
58992;SDS011;44782;0.000;0.000;2022-08-01T09:54:37;2.92;;;2.72;;
58992;SDS011;44782;0.000;0.000;2022-08-01T09:56:53;3.20;;;3.00;;
58992;SDS011;44782;0.000;0.000;2022-08-01T09:59:09;3.25;;;3.05;;
58992;SDS011;44782;0.000;0.000;2022-08-01T10:01:24;3.42;;;3.13;;
58992;SDS011;44782;0.000;0.000;2022-08-01T10:03:41;3.33;;;3.03;;
58992;SDS011;44782;0.000;0.000;2022-08-01T10:05:56;3.35;;;3.15;;
58992;SDS011;44782;0.000;0.000;2022-08-01T10:08:13;3.20;;;3.00;;
58992;SDS011;44782;0.000;0.000;2022-08-01T10:10:30;3.65;;;3.35;;
58992;SDS011;44782;0.000;0.000;2022-08-01T10:12:46;3.40;;;3.13;;
58992;SDS011;44782;0.000;0.000;2022-08-01T10:15:03;3.00;;;2.80;;
58992;SDS011;44782;0.000;0.000;2022-08-01T10:17:20;3.17;;;2.97;;
58992;SDS011;44782;0.000;0.000;2022-08-01T10:19:39;3.35;;;3.13;;
58992;SDS011;44782;0.000;0.000;2022-08-01T10:21:56;3.83;;;3.30;;
58992;SDS011;44782;0.000;0.000;2022-08-01T10:24:12;3.42;;;3.22;;
58992;SDS011;44782;0.000;0.000;2022-08-01T10:26:29;3.42;;;3.22;;
58992;SDS011;44782;0.000;0.000;2022-08-01T10:28:48;3.60;;;3.30;;
58992;SDS011;44782;0.000;0.000;2022-08-01T10:31:04;3.33;;;3.13;;
58992;SDS011;44782;0.000;0.000;2022-08-01T10:33:22;3.65;;;3.38;;
58992;SDS011;44782;0.000;0.000;2022-08-01T10:35:38;3.38;;;3.17;;
58992;SDS011;44782;0.000;0.000;2022-08-01T10:37:54;3.33;;;3.13;;
58992;SDS011;44782;0.000;0.000;2022-08-01T10:40:13;3.38;;;3.17;;
58992;SDS011;44782;0.000;0.000;2022-08-01T10:42:29;3.58;;;3.38;;
58992;SDS011;44782;0.000;0.000;2022-08-01T10:44:45;3.55;;;3.28;;
58992;SDS011;44782;0.000;0.000;2022-08-01T10:47:09;4.10;;;3.80;;
58992;SDS011;44782;0.000;0.000;2022-08-01T10:49:27;3.38;;;3.17;;
58992;SDS011;44782;0.000;0.000;2022-08-01T10:51:45;3.72;;;3.42;;
58992;SDS011;44782;0.000;0.000;2022-08-01T10:54:02;3.72;;;3.42;;
58992;SDS011;44782;0.000;0.000;2022-08-01T10:56:21;3.75;;;3.45;;
58992;SDS011;44782;0.000;0.000;2022-08-01T10:58:37;3.70;;;3.50;;
58992;SDS011;44782;0.000;0.000;2022-08-01T11:03:34;3.50;;;3.30;;
58992;SDS011;44782;0.000;0.000;2022-08-01T11:05:50;3.60;;;3.40;;
58992;SDS011;44782;0.000;0.000;2022-08-01T11:12:50;3.53;;;3.33;;
58992;SDS011;44782;0.000;0.000;2022-08-01T11:20:05;3.30;;;3.05;;
58992;SDS011;44782;0.000;0.000;2022-08-01T11:22:29;3.63;;;3.40;;
58992;SDS011;44782;0.000;0.000;2022-08-01T11:27:16;3.50;;;3.30;;
58992;SDS011;44782;0.000;0.000;2022-08-01T11:29:33;3.53;;;3.33;;
58992;SDS011;44782;0.000;0.000;2022-08-01T11:31:49;3.72;;;3.47;;
58992;SDS011;44782;0.000;0.000;2022-08-01T11:34:06;3.75;;;3.55;;
58992;SDS011;44782;0.000;0.000;2022-08-01T11:36:22;3.50;;;3.30;;
58992;SDS011;44782;0.000;0.000;2022-08-01T11:38:42;3.38;;;3.17;;
58992;SDS011;44782;0.000;0.000;2022-08-01T11:41:22;3.50;;;3.30;;
58992;SDS011;44782;0.000;0.000;2022-08-01T11:51:55;3.75;;;3.45;;
58992;SDS011;44782;0.000;0.000;2022-08-01T11:54:24;3.42;;;3.22;;
58992;SDS011;44782;0.000;0.000;2022-08-01T11:56:44;3.30;;;3.10;;
58992;SDS011;44782;0.000;0.000;2022-08-01T11:59:00;3.58;;;3.38;;
58992;SDS011;44782;0.000;0.000;2022-08-01T12:01:15;3.50;;;3.30;;
58992;SDS011;44782;0.000;0.000;2022-08-01T12:03:33;3.42;;;3.22;;
58992;SDS011;44782;0.000;0.000;2022-08-01T12:05:50;3.65;;;3.35;;
58992;SDS011;44782;0.000;0.000;2022-08-01T12:08:06;3.38;;;3.17;;
58992;SDS011;44782;0.000;0.000;2022-08-01T12:10:23;3.75;;;3.45;;
58992;SDS011;44782;0.000;0.000;2022-08-01T12:12:44;3.47;;;3.28;;
58992;SDS011;44782;0.000;0.000;2022-08-01T12:15:06;3.40;;;3.20;;
58992;SDS011;44782;0.000;0.000;2022-08-01T12:17:28;3.60;;;3.40;;
58992;SDS011;44782;0.000;0.000;2022-08-01T12:19:46;3.70;;;3.40;;
58992;SDS011;44782;0.000;0.000;2022-08-01T12:22:08;3.13;;;2.92;;
58992;SDS011;44782;0.000;0.000;2022-08-01T12:24:28;3.67;;;3.38;;
58992;SDS011;44782;0.000;0.000;2022-08-01T12:26:43;3.55;;;3.35;;
58992;SDS011;44782;0.000;0.000;2022-08-01T12:28:59;3.53;;;3.33;;
58992;SDS011;44782;0.000;0.000;2022-08-01T12:31:15;3.47;;;3.28;;
58992;SDS011;44782;0.000;0.000;2022-08-01T12:33:30;3.63;;;3.30;;
58992;SDS011;44782;0.000;0.000;2022-08-01T12:35:46;3.83;;;3.58;;
58992;SDS011;44782;0.000;0.000;2022-08-01T12:38:07;3.70;;;3.50;;
58992;SDS011;44782;0.000;0.000;2022-08-01T12:40:33;3.25;;;3.05;;
58992;SDS011;44782;0.000;0.000;2022-08-01T12:42:51;3.22;;;3.03;;
58992;SDS011;44782;0.000;0.000;2022-08-01T12:45:09;3.60;;;3.40;;
58992;SDS011;44782;0.000;0.000;2022-08-01T12:47:26;3.30;;;3.10;;
58992;SDS011;44782;0.000;0.000;2022-08-01T12:49:42;3.35;;;3.15;;
58992;SDS011;44782;0.000;0.000;2022-08-01T12:51:59;3.20;;;3.00;;
58992;SDS011;44782;0.000;0.000;2022-08-01T12:54:15;3.33;;;3.13;;
58992;SDS011;44782;0.000;0.000;2022-08-01T12:56:31;3.42;;;3.22;;
58992;SDS011;44782;0.000;0.000;2022-08-01T12:58:48;3.60;;;3.30;;
58992;SDS011;44782;0.000;0.000;2022-08-01T13:01:10;3.70;;;3.42;;
58992;SDS011;44782;0.000;0.000;2022-08-01T13:03:26;3.22;;;3.03;;
58992;SDS011;44782;0.000;0.000;2022-08-01T13:08:13;3.22;;;3.03;;
58992;SDS011;44782;0.000;0.000;2022-08-01T13:10:36;3.40;;;3.20;;
58992;SDS011;44782;0.000;0.000;2022-08-01T13:12:53;3.35;;;3.15;;
58992;SDS011;44782;0.000;0.000;2022-08-01T13:15:20;3.17;;;2.97;;
58992;SDS011;44782;0.000;0.000;2022-08-01T13:17:39;3.53;;;3.33;;
58992;SDS011;44782;0.000;0.000;2022-08-01T13:19:54;3.28;;;3.08;;
58992;SDS011;44782;0.000;0.000;2022-08-01T13:22:10;3.47;;;3.28;;
58992;SDS011;44782;0.000;0.000;2022-08-01T13:24:26;3.58;;;3.28;;
58992;SDS011;44782;0.000;0.000;2022-08-01T13:27:02;3.67;;;3.40;;
58992;SDS011;44782;0.000;0.000;2022-08-01T13:29:19;3.55;;;3.35;;
58992;SDS011;44782;0.000;0.000;2022-08-01T13:31:38;3.70;;;3.40;;
58992;SDS011;44782;0.000;0.000;2022-08-01T13:33:54;3.05;;;2.85;;
58992;SDS011;44782;0.000;0.000;2022-08-01T13:36:10;3.28;;;3.08;;
58992;SDS011;44782;0.000;0.000;2022-08-01T13:38:27;3.15;;;2.95;;
58992;SDS011;44782;0.000;0.000;2022-08-01T13:41:01;3.55;;;3.33;;
58992;SDS011;44782;0.000;0.000;2022-08-01T13:43:16;3.03;;;2.83;;
58992;SDS011;44782;0.000;0.000;2022-08-01T13:45:32;3.72;;;3.30;;
58992;SDS011;44782;0.000;0.000;2022-08-01T13:47:49;3.72;;;3.42;;
58992;SDS011;44782;0.000;0.000;2022-08-01T13:50:05;3.38;;;3.13;;
58992;SDS011;44782;0.000;0.000;2022-08-01T13:52:21;3.50;;;3.20;;
58992;SDS011;44782;0.000;0.000;2022-08-01T13:54:36;3.83;;;3.47;;
58992;SDS011;44782;0.000;0.000;2022-08-01T13:56:52;3.65;;;3.45;;
58992;SDS011;44782;0.000;0.000;2022-08-01T13:59:08;3.78;;;3.47;;
58992;SDS011;44782;0.000;0.000;2022-08-01T14:01:24;3.58;;;3.38;;
58992;SDS011;44782;0.000;0.000;2022-08-01T14:03:40;3.42;;;3.22;;
58992;SDS011;44782;0.000;0.000;2022-08-01T14:05:56;3.83;;;3.53;;
58992;SDS011;44782;0.000;0.000;2022-08-01T14:08:11;3.55;;;3.30;;
58992;SDS011;44782;0.000;0.000;2022-08-01T14:10:27;3.58;;;3.38;;
58992;SDS011;44782;0.000;0.000;2022-08-01T14:12:43;4.00;;;3.70;;
58992;SDS011;44782;0.000;0.000;2022-08-01T14:14:59;3.97;;;3.67;;
58992;SDS011;44782;0.000;0.000;2022-08-01T14:17:14;3.72;;;3.38;;
58992;SDS011;44782;0.000;0.000;2022-08-01T14:19:30;3.53;;;3.33;;
58992;SDS011;44782;0.000;0.000;2022-08-01T14:21:46;3.78;;;3.50;;
58992;SDS011;44782;0.000;0.000;2022-08-01T14:24:01;3.88;;;3.58;;
58992;SDS011;44782;0.000;0.000;2022-08-01T14:26:17;3.78;;;3.47;;
58992;SDS011;44782;0.000;0.000;2022-08-01T14:28:33;3.67;;;3.47;;
58992;SDS011;44782;0.000;0.000;2022-08-01T14:30:49;3.50;;;3.30;;
58992;SDS011;44782;0.000;0.000;2022-08-01T14:33:04;3.45;;;3.15;;
58992;SDS011;44782;0.000;0.000;2022-08-01T14:35:20;3.55;;;3.33;;
58992;SDS011;44782;0.000;0.000;2022-08-01T14:37:36;3.55;;;3.35;;
58992;SDS011;44782;0.000;0.000;2022-08-01T14:39:52;3.45;;;3.25;;
58992;SDS011;44782;0.000;0.000;2022-08-01T14:42:08;3.70;;;3.45;;